Time;durP1;ratioP1;P1;durP2;ratioP2;P2;SDS_P1;SDS_P2;PMS_P1;PMS_P2;Temp;Humidity;BMP_temperature;BMP_pressure;BME280_temperature;BME280_humidity;BME280_pressure;Samples;Min_cycle;Max_cycle;Signal;HPM_P1;HPM_P2
2023/06/25 00:00:10;;;;;;;;;;;;;;;21.66;89.04;100220.13;4971691;28;19910;-64
2023/06/25 00:02:36;;;;;;;;;;;;;;;21.64;88.82;100227.16;4971860;28;19918;-64
2023/06/25 00:05:01;;;;;;;;;;;;;;;21.63;88.23;100228.03;4971797;28;19988;-64
2023/06/25 00:07:26;;;;;;;;;;;;;;;21.62;88.49;100235.06;4969654;28;19973;-68
2023/06/25 00:09:55;;;;;;;;;;;;;;;21.57;88.44;100241.25;4953319;28;19918;-67
2023/06/25 00:12:21;;;;;;;;;;;;;;;21.47;89.11;100236.09;4961774;28;19914;-65
2023/06/25 00:14:46;;;;;;;;;;;;;;;21.56;88.55;100236.88;4971632;28;19910;-64
2023/06/25 00:17:17;;;;;;;;;;;;;;;21.75;87.62;100234.91;4937661;28;19964;-69
2023/06/25 00:19:43;;;;;;;;;;;;;;;21.92;87.20;100243.44;4968400;28;19918;-69
2023/06/25 00:22:11;;;;;;;;;;;;;;;21.92;86.73;100247.81;4971540;28;19921;-64
2023/06/25 00:24:36;;;;;;;;;;;;;;;21.77;87.17;100254.13;4971305;28;20021;-69
2023/06/25 00:27:01;;;;;;;;;;;;;;;21.69;87.38;100254.22;4971459;28;20017;-64
2023/06/25 00:29:27;;;;;;;;;;;;;;;21.48;88.78;100256.22;4971649;28;20012;-67
2023/06/25 00:31:52;;;;;;;;;;;;;;;21.53;88.56;100256.13;4971386;28;20053;-68
2023/06/25 00:34:19;;;;;;;;;;;;;;;21.45;89.48;100252.75;4971357;28;20367;-70
2023/06/25 00:36:45;;;;;;;;;;;;;;;21.55;89.04;100243.00;4971534;28;19921;-66
2023/06/25 00:39:10;;;;;;;;;;;;;;;21.59;88.23;100244.75;4971112;28;19918;-65
2023/06/25 00:41:38;;;;;;;;;;;;;;;21.44;89.22;100251.00;4971796;28;19914;-66
2023/06/25 00:44:06;;;;;;;;;;;;;;;21.37;89.77;100249.34;4971499;28;19941;-67
2023/06/25 00:46:32;;;;;;;;;;;;;;;21.28;89.98;100250.31;4971459;28;19972;-66
2023/06/25 00:49:01;;;;;;;;;;;;;;;21.35;89.90;100246.72;4971087;28;20321;-67
2023/06/25 00:51:27;;;;;;;;;;;;;;;21.45;89.30;100237.00;4937950;28;19968;-63
2023/06/25 00:53:52;;;;;;;;;;;;;;;21.38;89.31;100237.94;4971236;28;20396;-68
2023/06/25 00:56:29;;;;;;;;;;;;;;;21.15;90.69;100234.69;4971556;28;19914;-63
2023/06/25 00:59:00;;;;;;;;;;;;;;;21.20;90.28;100231.13;4971328;28;19965;-65
2023/06/25 01:01:26;;;;;;;;;;;;;;;21.11;91.09;100232.09;4921213;28;19914;-70
2023/06/25 01:03:54;;;;;;;;;;;;;;;21.22;90.31;100234.63;4970932;28;19953;-66
2023/06/25 01:06:29;;;;;;;;;;;;;;;21.28;90.02;100232.81;4955303;28;20001;-68
2023/06/25 01:08:55;;;;;;;;;;;;;;;21.30;90.18;100238.91;4975152;28;20305;-62
2023/06/25 01:11:20;;;;;;;;;;;;;;;21.43;89.99;100241.38;4975048;28;19914;-67
2023/06/25 01:13:45;;;;;;;;;;;;;;;21.48;88.63;100239.56;4975195;28;20292;-68
2023/06/25 01:16:11;;;;;;;;;;;;;;;21.41;88.88;100236.16;4956300;28;19960;-66
2023/06/25 01:18:39;;;;;;;;;;;;;;;21.34;89.07;100237.97;4974559;28;19917;-68
2023/06/25 01:21:05;;;;;;;;;;;;;;;21.17;90.03;100240.78;4974479;28;19914;-68
2023/06/25 01:23:31;;;;;;;;;;;;;;;21.26;89.92;100238.94;4974762;28;20404;-67
2023/06/25 01:25:56;;;;;;;;;;;;;;;21.26;89.26;100236.31;4974856;28;19910;-65
2023/06/25 01:28:22;;;;;;;;;;;;;;;21.32;88.49;100224.00;4957130;28;19925;-67
2023/06/25 01:30:48;;;;;;;;;;;;;;;21.58;87.24;100229.84;4974351;28;19926;-67
2023/06/25 01:33:15;;;;;;;;;;;;;;;21.68;86.31;100223.59;4974226;28;19917;-66
2023/06/25 01:35:41;;;;;;;;;;;;;;;21.70;85.61;100221.81;4974659;28;19914;-70
2023/06/25 01:38:06;;;;;;;;;;;;;;;21.84;86.40;100218.16;4974461;28;20412;-69
2023/06/25 01:40:32;;;;;;;;;;;;;;;21.88;85.34;100218.09;4973976;28;19944;-65
2023/06/25 01:42:57;;;;;;;;;;;;;;;21.79;85.65;100219.09;4974396;28;20020;-66
2023/06/25 01:45:22;;;;;;;;;;;;;;;21.76;85.80;100208.59;4974119;28;19910;-65
2023/06/25 01:47:48;;;;;;;;;;;;;;;21.83;86.88;100205.91;4973710;28;19954;-66
2023/06/25 01:50:14;;;;;;;;;;;;;;;21.90;87.95;100203.16;4974011;28;19914;-65
2023/06/25 01:52:39;;;;;;;;;;;;;;;21.79;88.57;100205.97;4974333;28;19925;-67
2023/06/25 01:55:05;;;;;;;;;;;;;;;21.55;89.91;100206.25;4973390;28;19944;-65
2023/06/25 01:57:30;;;;;;;;;;;;;;;21.36;91.69;100203.84;4974061;28;19918;-66
2023/06/25 01:59:55;;;;;;;;;;;;;;;21.25;89.48;100198.69;4973443;28;19914;-65
2023/06/25 02:02:21;;;;;;;;;;;;;;;21.18;89.07;100210.16;4973912;28;20368;-65
2023/06/25 02:04:46;;;;;;;;;;;;;;;21.06;89.63;100208.53;4973658;28;19954;-68
2023/06/25 02:07:11;;;;;;;;;;;;;;;20.94;89.91;100204.28;4973878;28;19918;-64
2023/06/25 02:09:37;;;;;;;;;;;;;;;20.67;91.42;100205.38;4973520;28;20288;-65
2023/06/25 02:12:02;;;;;;;;;;;;;;;20.64;93.23;100208.91;4973719;28;19914;-68
2023/06/25 02:14:27;;;;;;;;;;;;;;;20.65;92.37;100212.41;4973583;28;19910;-64
2023/06/25 02:16:53;;;;;;;;;;;;;;;20.51;92.47;100207.25;4973419;28;19921;-65
2023/06/25 02:19:18;;;;;;;;;;;;;;;20.49;93.44;100215.13;4973339;28;19918;-65
2023/06/25 02:21:43;;;;;;;;;;;;;;;20.40;93.89;100222.19;4973537;28;20002;-66
2023/06/25 02:24:08;;;;;;;;;;;;;;;20.53;93.43;100222.09;4956434;28;19910;-66
2023/06/25 02:26:34;;;;;;;;;;;;;;;20.72;93.01;100211.47;4973951;28;19914;-65
2023/06/25 02:28:59;;;;;;;;;;;;;;;20.76;91.39;100221.06;4973824;28;19925;-68
2023/06/25 02:31:24;;;;;;;;;;;;;;;20.87;90.54;100217.47;4973554;28;19926;-66
2023/06/25 02:33:50;;;;;;;;;;;;;;;20.95;88.98;100208.63;4973444;28;19918;-69
2023/06/25 02:36:15;;;;;;;;;;;;;;;21.09;87.77;100210.25;4973244;28;20033;-66
2023/06/25 02:38:41;;;;;;;;;;;;;;;21.10;87.23;100207.63;4973271;28;19914;-69
2023/06/25 02:41:06;;;;;;;;;;;;;;;21.21;86.18;100209.25;4973036;28;19914;-67
2023/06/25 02:43:31;;;;;;;;;;;;;;;21.32;85.82;100210.00;4965423;28;19914;-69
2023/06/25 02:45:57;;;;;;;;;;;;;;;21.40;85.95;100205.53;4973399;28;20387;-70
2023/06/25 02:48:22;;;;;;;;;;;;;;;21.26;85.88;100199.56;4972952;28;20635;-69
2023/06/25 02:50:48;;;;;;;;;;;;;;;21.02;88.57;100201.56;4972393;28;19917;-64
2023/06/25 02:53:13;;;;;;;;;;;;;;;21.07;88.94;100204.16;4973083;28;19918;-66
2023/06/25 02:55:39;;;;;;;;;;;;;;;21.10;90.38;100196.25;4973207;28;19914;-70
2023/06/25 02:58:04;;;;;;;;;;;;;;;21.13;89.91;100204.97;4973279;28;19914;-71
2023/06/25 03:00:29;;;;;;;;;;;;;;;21.09;87.37;100213.75;4972610;28;19982;-68
2023/06/25 03:02:55;;;;;;;;;;;;;;;21.01;85.95;100213.81;4972830;28;19921;-65
2023/06/25 03:05:20;;;;;;;;;;;;;;;21.06;85.13;100208.53;4972897;28;20005;-68
2023/06/25 03:07:56;;;;;;;;;;;;;;;21.11;84.68;100203.22;4972902;28;19937;-68
2023/06/25 03:10:25;;;;;;;;;;;;;;;21.08;83.60;100217.25;4972746;28;19964;-65
2023/06/25 03:12:51;;;;;;;;;;;;;;;20.84;85.61;100227.09;4972536;28;19914;-66
2023/06/25 03:15:17;;;;;;;;;;;;;;;20.67;87.48;100228.97;4972308;28;19921;-65
2023/06/25 03:17:43;;;;;;;;;;;;;;;20.50;87.84;100232.63;4972179;28;20344;-66
2023/06/25 03:20:08;;;;;;;;;;;;;;;20.33;88.28;100245.84;4972308;28;19974;-65
2023/06/25 03:22:34;;;;;;;;;;;;;;;20.29;89.19;100245.91;4972265;28;19914;-67
2023/06/25 03:24:59;;;;;;;;;;;;;;;20.08;89.98;100249.53;4972328;28;19977;-66
2023/06/25 03:27:24;;;;;;;;;;;;;;;19.92;90.89;100253.97;4972365;28;19918;-66
2023/06/25 03:29:49;;;;;;;;;;;;;;;19.80;92.27;100254.84;4971486;28;20434;-67
2023/06/25 03:32:15;;;;;;;;;;;;;;;19.72;91.97;100260.97;4972274;28;20373;-66
2023/06/25 03:34:40;;;;;;;;;;;;;;;19.64;91.90;100249.69;4972471;28;19917;-69
2023/06/25 03:37:05;;;;;;;;;;;;;;;19.48;93.24;100248.88;4972330;28;19924;-68
2023/06/25 03:39:31;;;;;;;;;;;;;;;19.30;94.55;100243.69;4953796;28;20316;-66
2023/06/25 03:41:56;;;;;;;;;;;;;;;19.16;95.98;100244.56;4972282;28;19918;-68
2023/06/25 03:44:21;;;;;;;;;;;;;;;19.19;96.78;100243.69;4971714;28;19980;-68
2023/06/25 03:46:46;;;;;;;;;;;;;;;19.17;96.97;100240.22;4971944;28;20355;-70
2023/06/25 03:49:12;;;;;;;;;;;;;;;19.07;99.12;100242.00;4971998;28;20281;-65
2023/06/25 03:51:37;;;;;;;;;;;;;;;19.22;98.31;100236.72;4972510;28;19925;-65
2023/06/25 03:54:02;;;;;;;;;;;;;;;19.28;98.45;100245.41;4971606;28;19914;-68
2023/06/25 03:56:28;;;;;;;;;;;;;;;19.40;98.25;100242.78;4937592;28;19914;-70
2023/06/25 03:58:53;;;;;;;;;;;;;;;19.37;99.35;100234.94;4972131;28;19952;-68
2023/06/25 04:01:18;;;;;;;;;;;;;;;19.32;99.29;100242.81;4972288;28;19961;-65
2023/06/25 04:03:44;;;;;;;;;;;;;;;19.47;99.54;100248.88;4971835;28;19914;-68
2023/06/25 04:06:09;;;;;;;;;;;;;;;19.56;98.99;100252.34;4971643;28;20004;-66
2023/06/25 04:08:34;;;;;;;;;;;;;;;19.67;98.72;100261.91;4971760;28;20005;-66
2023/06/25 04:10:59;;;;;;;;;;;;;;;19.73;98.18;100264.50;4971632;28;19914;-66
2023/06/25 04:13:25;;;;;;;;;;;;;;;19.81;98.20;100270.59;4971612;28;19914;-67
2023/06/25 04:15:50;;;;;;;;;;;;;;;19.68;99.45;100274.97;4971456;28;19918;-66
2023/06/25 04:18:15;;;;;;;;;;;;;;;19.64;100.00;100268.00;4971296;28;20008;-65
2023/06/25 04:20:41;;;;;;;;;;;;;;;19.71;100.00;100274.09;4971617;28;19918;-66
2023/06/25 04:23:06;;;;;;;;;;;;;;;19.92;99.48;100272.31;4971534;28;20332;-67
2023/06/25 04:25:32;;;;;;;;;;;;;;;20.09;98.57;100272.19;4972197;28;20327;-66
2023/06/25 04:27:57;;;;;;;;;;;;;;;20.09;98.80;100259.09;4971219;28;20308;-70
2023/06/25 04:30:23;;;;;;;;;;;;;;;20.10;99.23;100256.50;4954075;28;20377;-65
2023/06/25 04:32:51;;;;;;;;;;;;;;;20.21;97.92;100259.03;4971537;28;19914;-66
2023/06/25 04:35:17;;;;;;;;;;;;;;;20.31;97.28;100267.72;4971861;28;19914;-66
2023/06/25 04:37:42;;;;;;;;;;;;;;;20.34;96.97;100265.09;4971873;28;19914;-66
2023/06/25 04:40:08;;;;;;;;;;;;;;;20.35;96.76;100253.72;4971501;28;19914;-70
2023/06/25 04:42:33;;;;;;;;;;;;;;;20.53;96.33;100248.31;4975051;28;20304;-70
2023/06/25 04:44:58;;;;;;;;;;;;;;;20.67;96.65;100248.22;4975208;28;19968;-69
2023/06/25 04:47:24;;;;;;;;;;;;;;;20.77;96.84;100246.44;4975446;28;19921;-66
2023/06/25 04:49:49;;;;;;;;;;;;;;;21.00;95.37;100247.97;4975837;28;19925;-68
2023/06/25 04:52:18;;;;;;;;;;;;;;;21.07;94.82;100247.03;4975566;28;20016;-66
2023/06/25 04:54:44;;;;;;;;;;;;;;;21.20;95.13;100241.63;4940967;28;19917;-66
2023/06/25 04:57:09;;;;;;;;;;;;;;;21.31;95.13;100245.03;4974998;28;20684;-69
2023/06/25 04:59:35;;;;;;;;;;;;;;;21.46;94.18;100249.25;4940746;28;19917;-66
2023/06/25 05:02:00;;;;;;;;;;;;;;;21.57;93.38;100243.88;4975457;28;19933;-69
2023/06/25 05:04:25;;;;;;;;;;;;;;;21.65;92.63;100244.66;4975388;28;19921;-70
2023/06/25 05:06:51;;;;;;;;;;;;;;;21.69;93.00;100238.47;4975062;28;19918;-66
2023/06/25 05:09:16;;;;;;;;;;;;;;;21.71;91.81;100241.97;4975604;28;19918;-71
2023/06/25 05:11:41;;;;;;;;;;;;;;;21.82;91.25;100231.31;4974335;28;19926;-68
2023/06/25 05:14:07;;;;;;;;;;;;;;;21.86;90.95;100237.38;4974835;28;19978;-68
2023/06/25 05:16:32;;;;;;;;;;;;;;;21.95;90.40;100232.88;4974651;28;19914;-68
2023/06/25 05:18:57;;;;;;;;;;;;;;;22.02;90.25;100236.28;4975205;28;20387;-65
2023/06/25 05:21:23;;;;;;;;;;;;;;;22.05;90.56;100238.00;4974817;28;19914;-68
2023/06/25 05:23:58;;;;;;;;;;;;;;;22.18;90.13;100239.56;4975147;28;19965;-67
2023/06/25 05:26:24;;;;;;;;;;;;;;;22.27;90.25;100231.53;4974618;28;19921;-68
2023/06/25 05:28:49;;;;;;;;;;;;;;;22.40;90.51;100234.00;4975160;28;19918;-68
2023/06/25 05:31:14;;;;;;;;;;;;;;;22.52;90.21;100235.56;4974440;28;19918;-66
2023/06/25 05:33:39;;;;;;;;;;;;;;;22.54;90.55;100231.16;4974973;28;20278;-68
2023/06/25 05:36:05;;;;;;;;;;;;;;;22.58;90.41;100233.72;4974427;28;19914;-68
2023/06/25 05:38:30;;;;;;;;;;;;;;;22.60;89.31;100228.44;4974634;28;19914;-66
2023/06/25 05:40:55;;;;;;;;;;;;;;;22.60;88.02;100231.06;4974692;28;20001;-68
2023/06/25 05:43:21;;;;;;;;;;;;;;;22.65;88.56;100228.34;4974502;28;19953;-66
2023/06/25 05:45:46;;;;;;;;;;;;;;;22.72;90.23;100230.00;4974681;28;20369;-70
2023/06/25 05:48:11;;;;;;;;;;;;;;;22.82;89.95;100230.69;4974698;28;19914;-68
2023/06/25 05:50:36;;;;;;;;;;;;;;;22.83;87.54;100233.31;4974309;28;20372;-67
2023/06/25 05:53:02;;;;;;;;;;;;;;;22.87;87.69;100226.22;4974128;28;19981;-64
2023/06/25 05:55:27;;;;;;;;;;;;;;;22.67;87.57;100230.06;4974404;28;19914;-70
2023/06/25 05:57:52;;;;;;;;;;;;;;;22.79;85.67;100226.34;4974345;28;20010;-69
2023/06/25 06:00:21;;;;;;;;;;;;;;;22.99;84.09;100227.75;4974409;28;20320;-68
2023/06/25 06:02:46;;;;;;;;;;;;;;;23.12;80.32;100221.38;4974152;28;19937;-68
2023/06/25 06:05:11;;;;;;;;;;;;;;;23.20;82.91;100226.50;4974472;28;20297;-65
2023/06/25 06:07:37;;;;;;;;;;;;;;;23.17;84.92;100223.97;4974404;28;20385;-67
2023/06/25 06:10:02;;;;;;;;;;;;;;;23.26;85.52;100222.03;4974232;28;19957;-67
2023/06/25 06:12:27;;;;;;;;;;;;;;;23.31;84.66;100221.91;4973429;28;20025;-69
2023/06/25 06:14:53;;;;;;;;;;;;;;;23.34;84.94;100227.13;4974092;28;19914;-65
2023/06/25 06:17:18;;;;;;;;;;;;;;;23.39;85.55;100225.25;4973727;28;19914;-67
2023/06/25 06:19:43;;;;;;;;;;;;;;;23.52;83.76;100222.38;4973827;28;19914;-67
2023/06/25 06:22:08;;;;;;;;;;;;;;;23.69;82.33;100215.00;4973531;28;19921;-67
2023/06/25 06:24:34;;;;;;;;;;;;;;;23.79;78.45;100225.31;4973999;28;20004;-68
2023/06/25 06:26:59;;;;;;;;;;;;;;;23.84;77.40;100213.78;4973458;28;19914;-68
2023/06/25 06:29:24;;;;;;;;;;;;;;;24.01;78.13;100216.09;4973906;28;19918;-70
2023/06/25 06:31:52;;;;;;;;;;;;;;;24.12;77.88;100217.59;4973596;28;20320;-69
2023/06/25 06:34:17;;;;;;;;;;;;;;;24.21;77.29;100212.09;4973756;28;19914;-69
2023/06/25 06:36:42;;;;;;;;;;;;;;;24.21;73.85;100206.81;4973826;28;19921;-68
2023/06/25 06:39:08;;;;;;;;;;;;;;;24.23;76.86;100194.47;4973885;28;20435;-67
2023/06/25 06:41:33;;;;;;;;;;;;;;;24.27;77.68;100201.41;4973645;28;19964;-69
2023/06/25 06:44:09;;;;;;;;;;;;;;;24.26;75.40;100199.66;4973797;28;19945;-71
2023/06/25 06:46:34;;;;;;;;;;;;;;;24.36;73.70;100197.66;4973206;28;19920;-69
2023/06/25 06:49:00;;;;;;;;;;;;;;;24.27;75.41;100192.63;4973306;28;19914;-69
2023/06/25 06:51:25;;;;;;;;;;;;;;;24.39;75.35;100200.25;4973275;28;19914;-70
2023/06/25 06:53:50;;;;;;;;;;;;;;;24.34;77.47;100187.16;4973417;28;19914;-68
2023/06/25 06:56:15;;;;;;;;;;;;;;;24.34;79.82;100186.31;4973140;28;20447;-65
2023/06/25 06:58:41;;;;;;;;;;;;;;;24.46;79.52;100185.13;4972845;28;20020;-65
2023/06/25 07:01:06;;;;;;;;;;;;;;;24.45;79.16;100188.66;4973488;28;19917;-69
2023/06/25 07:03:31;;;;;;;;;;;;;;;24.49;78.39;100180.63;4972879;28;19972;-66
2023/06/25 07:05:56;;;;;;;;;;;;;;;24.54;77.06;100173.47;4973342;28;19957;-69
2023/06/25 07:08:22;;;;;;;;;;;;;;;24.52;77.65;100179.69;4973354;28;19973;-69
2023/06/25 07:10:47;;;;;;;;;;;;;;;24.66;76.64;100177.59;4972826;28;20296;-69
2023/06/25 07:13:12;;;;;;;;;;;;;;;24.92;76.42;100178.66;4973056;28;19914;-68
2023/06/25 07:15:37;;;;;;;;;;;;;;;25.19;75.23;100170.88;4973053;28;19910;-69
2023/06/25 07:18:03;;;;;;;;;;;;;;;25.44;74.40;100167.56;4938540;28;19918;-69
2023/06/25 07:20:28;;;;;;;;;;;;;;;25.58;73.36;100175.94;4973234;28;19913;-69
2023/06/25 07:22:53;;;;;;;;;;;;;;;25.63;73.30;100174.03;4972717;28;19918;-65
2023/06/25 07:25:18;;;;;;;;;;;;;;;25.74;77.25;100172.84;4972715;28;20004;-69
2023/06/25 07:27:44;;;;;;;;;;;;;;;25.71;74.79;100168.53;4972530;28;19922;-67
2023/06/25 07:30:09;;;;;;;;;;;;;;;25.91;73.96;100161.75;4972714;28;20008;-68
2023/06/25 07:32:35;;;;;;;;;;;;;;;26.11;73.12;100163.78;4972112;28;19918;-69
2023/06/25 07:35:00;;;;;;;;;;;;;;;26.28;72.74;100163.22;4972855;28;20343;-71
2023/06/25 07:37:25;;;;;;;;;;;;;;;26.43;71.70;100161.81;4972722;28;19998;-68
2023/06/25 07:39:50;;;;;;;;;;;;;;;26.50;71.88;100158.06;4972114;28;20368;-68
2023/06/25 07:42:16;;;;;;;;;;;;;;;26.57;72.79;100164.88;4972476;28;19921;-66
2023/06/25 07:44:41;;;;;;;;;;;;;;;26.43;73.32;100156.53;4972554;28;19918;-66
2023/06/25 07:47:08;;;;;;;;;;;;;;;26.39;71.98;100149.63;4971940;28;20016;-68
2023/06/25 07:49:34;;;;;;;;;;;;;;;26.55;72.02;100149.97;4972475;28;19937;-68
2023/06/25 07:51:59;;;;;;;;;;;;;;;26.63;73.35;100153.19;4972352;28;19914;-68
2023/06/25 07:54:24;;;;;;;;;;;;;;;26.69;74.23;100152.13;4972080;28;20294;-68
2023/06/25 07:56:49;;;;;;;;;;;;;;;26.64;77.89;100147.88;4972246;28;20399;-71
2023/06/25 07:59:15;;;;;;;;;;;;;;;26.62;73.79;100139.09;4972128;28;19920;-66
2023/06/25 08:01:40;;;;;;;;;;;;;;;26.54;73.17;100138.50;4971842;28;20020;-66
2023/06/25 08:04:06;;;;;;;;;;;;;;;26.63;71.67;100135.53;4972298;28;19933;-68
2023/06/25 08:06:31;;;;;;;;;;;;;;;26.87;71.31;100130.31;4972068;28;19921;-68
2023/06/25 08:08:57;;;;;;;;;;;;;;;27.11;72.05;100127.69;4972133;28;19918;-65
2023/06/25 08:11:22;;;;;;;;;;;;;;;27.15;77.52;100123.16;4971902;28;19917;-68
2023/06/25 08:13:47;;;;;;;;;;;;;;;27.30;71.32;100122.53;4972322;28;19914;-65
2023/06/25 08:16:13;;;;;;;;;;;;;;;27.45;69.59;100113.16;4971105;28;19914;-69
2023/06/25 08:18:38;;;;;;;;;;;;;;;27.54;70.76;100120.78;4972272;28;20296;-68
2023/06/25 08:21:03;;;;;;;;;;;;;;;27.66;70.35;100107.97;4971548;28;19917;-68
2023/06/25 08:23:28;;;;;;;;;;;;;;;27.76;67.61;100104.88;4971668;28;20361;-65
2023/06/25 08:25:55;;;;;;;;;;;;;;;27.80;67.78;100102.94;4971627;28;19914;-67
2023/06/25 08:28:20;;;;;;;;;;;;;;;27.79;70.96;100109.19;4971701;28;19925;-69
2023/06/25 08:31:05;;;;;;;;;;;;;;;27.85;73.32;100092.16;4971719;28;20362;-68
2023/06/25 08:33:31;;;;;;;;;;;;;;;27.89;67.52;100091.13;4920693;29;20353;-67
2023/06/25 08:35:57;;;;;;;;;;;;;;;27.85;68.34;100086.84;4895633;29;20001;-68
2023/06/25 08:38:24;;;;;;;;;;;;;;;27.79;69.65;100085.31;4921831;29;20001;-68
2023/06/25 08:40:52;;;;;;;;;;;;;;;27.79;71.60;100082.69;4918177;29;19971;-66
2023/06/25 08:43:17;;;;;;;;;;;;;;;27.72;64.85;100073.25;4931012;29;19918;-65
2023/06/25 08:45:42;;;;;;;;;;;;;;;27.69;66.40;100078.66;4914886;29;20313;-68
2023/06/25 08:48:11;;;;;;;;;;;;;;;27.72;64.78;100071.44;4930930;29;20397;-68
2023/06/25 08:50:37;;;;;;;;;;;;;;;27.82;70.36;100073.72;4930498;29;19945;-66
2023/06/25 08:53:02;;;;;;;;;;;;;;;27.95;67.93;100066.09;4930945;29;20041;-65
2023/06/25 08:55:28;;;;;;;;;;;;;;;28.12;66.63;100063.63;4930450;29;20492;-65
2023/06/25 08:57:54;;;;;;;;;;;;;;;28.25;65.19;100058.66;4930594;29;19983;-68
2023/06/25 09:00:19;;;;;;;;;;;;;;;28.36;66.46;100056.41;4898768;29;20517;-69
2023/06/25 09:02:44;;;;;;;;;;;;;;;28.56;64.49;100054.66;4930854;29;19922;-65
2023/06/25 09:05:13;;;;;;;;;;;;;;;28.72;60.45;100046.91;4961996;28;19918;-68
2023/06/25 09:07:42;;;;;;;;;;;;;;;28.81;61.48;100056.22;4971461;28;19941;-65
2023/06/25 09:10:08;;;;;;;;;;;;;;;28.90;61.80;100045.19;4971517;28;19921;-68
2023/06/25 09:12:33;;;;;;;;;;;;;;;29.12;64.54;100054.81;4971537;28;19914;-72
2023/06/25 09:14:58;;;;;;;;;;;;;;;29.31;64.46;100047.72;4971307;28;19968;-68
2023/06/25 09:17:24;;;;;;;;;;;;;;;29.41;63.08;100047.28;4971928;28;19914;-65
2023/06/25 09:19:49;;;;;;;;;;;;;;;29.47;57.94;100042.53;4971168;28;20380;-67
2023/06/25 09:22:14;;;;;;;;;;;;;;;29.57;58.16;100042.06;4971573;28;19921;-67
2023/06/25 09:24:44;;;;;;;;;;;;;;;29.70;60.72;100043.19;4971307;28;19921;-68
2023/06/25 09:27:09;;;;;;;;;;;;;;;29.76;57.99;100032.25;4972406;28;19914;-67
2023/06/25 09:29:36;;;;;;;;;;;;;;;29.70;63.67;100029.91;4974666;28;19918;-69
2023/06/25 09:32:06;;;;;;;;;;;;;;;29.62;60.01;100027.63;4974880;28;19918;-69
2023/06/25 09:34:31;;;;;;;;;;;;;;;29.76;60.62;100023.38;4974294;28;20004;-68
2023/06/25 09:36:57;;;;;;;;;;;;;;;29.83;60.61;100031.00;4940594;28;19989;-65
2023/06/25 09:39:23;;;;;;;;;;;;;;;29.62;61.67;100032.06;4974664;28;19987;-69
2023/06/25 09:41:50;;;;;;;;;;;;;;;29.64;59.65;100028.38;4974542;28;19917;-69
2023/06/25 09:44:17;;;;;;;;;;;;;;;29.60;58.36;100026.81;4974316;28;19921;-69
2023/06/25 09:46:44;;;;;;;;;;;;;;;29.63;58.04;100029.31;4974585;28;20038;-68
2023/06/25 09:49:12;;;;;;;;;;;;;;;29.73;57.43;100021.75;4974243;28;19918;-68
2023/06/25 09:51:52;;;;;;;;;;;;;;;29.93;55.27;100026.09;4974742;28;20576;-68
2023/06/25 09:54:21;;;;;;;;;;;;;;;30.14;55.89;100021.47;4961595;28;20001;-63
2023/06/25 09:56:48;;;;;;;;;;;;;;;30.30;53.59;100018.00;4974154;28;20012;-68
2023/06/25 09:59:13;;;;;;;;;;;;;;;30.35;53.86;100018.63;4974215;28;19914;-68
2023/06/25 10:01:39;;;;;;;;;;;;;;;30.49;53.34;100025.91;4956698;28;20034;-68
2023/06/25 10:04:04;;;;;;;;;;;;;;;30.55;52.17;100022.06;4933291;29;19915;-70
2023/06/25 10:06:30;;;;;;;;;;;;;;;30.37;53.31;100011.44;4932888;29;20486;-69
2023/06/25 10:08:55;;;;;;;;;;;;;;;30.28;53.25;100011.91;4926238;29;20310;-67
2023/06/25 10:11:21;;;;;;;;;;;;;;;30.61;51.93;99997.75;4926994;29;19922;-69
2023/06/25 10:13:46;;;;;;;;;;;;;;;30.80;53.95;100003.78;4914274;29;20402;-67
2023/06/25 10:16:17;;;;;;;;;;;;;;;30.85;54.10;100003.53;4914123;29;19915;-69
2023/06/25 10:18:43;;;;;;;;;;;;;;;30.87;50.83;99995.44;4933172;29;20309;-66
2023/06/25 10:21:16;;;;;;;;;;;;;;;31.09;50.78;99987.16;4933068;29;19918;-69
2023/06/25 10:23:41;;;;;;;;;;;;;;;31.34;51.65;99981.28;4924751;29;19979;-69
2023/06/25 10:26:07;;;;;;;;;;;;;;;31.14;52.46;99977.94;4913924;29;19915;-67
2023/06/25 10:28:34;;;;;;;;;;;;;;;31.00;51.82;99974.31;4921348;29;20337;-68
2023/06/25 10:31:10;;;;;;;;;;;;;;;31.08;51.18;99972.09;4932838;29;19925;-69
2023/06/25 10:33:37;;;;;;;;;;;;;;;31.45;48.64;99965.53;4933017;29;19977;-68
2023/06/25 10:36:03;;;;;;;;;;;;;;;31.83;49.54;99963.34;4969501;28;20427;-67
2023/06/25 10:38:28;;;;;;;;;;;;;;;32.08;49.22;99952.91;4972940;28;19917;-67
2023/06/25 10:40:54;;;;;;;;;;;;;;;32.27;48.81;99967.81;4973457;28;19922;-63
2023/06/25 10:43:20;;;;;;;;;;;;;;;32.45;46.06;99954.25;4973392;28;19918;-70
2023/06/25 10:45:53;;;;;;;;;;;;;;;32.56;45.50;99944.63;4973385;28;20008;-69
2023/06/25 10:48:21;;;;;;;;;;;;;;;32.70;45.33;99938.41;4973383;28;20043;-70
2023/06/25 10:50:48;;;;;;;;;;;;;;;32.62;46.22;99946.03;4973158;28;19918;-67
2023/06/25 10:53:14;;;;;;;;;;;;;;;32.49;46.68;99937.94;4973464;28;19918;-68
2023/06/25 10:55:43;;;;;;;;;;;;;;;32.77;42.83;99930.00;4972807;28;19914;-68
2023/06/25 10:58:09;;;;;;;;;;;;;;;32.85;42.88;99928.56;4973305;28;19930;-69
2023/06/25 11:00:34;;;;;;;;;;;;;;;33.10;42.99;99920.72;4972556;28;19918;-68
2023/06/25 11:02:59;;;;;;;;;;;;;;;33.17;42.44;99914.88;4973029;28;19914;-70
2023/06/25 11:05:33;;;;;;;;;;;;;;;32.99;42.27;99908.94;4972777;28;19921;-67
2023/06/25 11:07:58;;;;;;;;;;;;;;;33.00;41.16;99916.00;4955929;28;19918;-68
2023/06/25 11:10:24;;;;;;;;;;;;;;;33.13;41.83;99908.00;4959850;28;19925;-65
2023/06/25 11:12:49;;;;;;;;;;;;;;;33.44;42.54;99903.31;4973031;28;20397;-68
2023/06/25 11:15:16;;;;;;;;;;;;;;;33.73;40.72;99907.63;4973023;28;19914;-68
2023/06/25 11:17:41;;;;;;;;;;;;;;;33.81;39.54;99907.94;4972365;28;20340;-68
2023/06/25 11:20:07;;;;;;;;;;;;;;;33.70;39.25;99908.69;4973177;28;19914;-69
2023/06/25 11:22:38;;;;;;;;;;;;;;;33.70;37.50;99896.16;4972785;28;20004;-69
2023/06/25 11:25:06;;;;;;;;;;;;;;;33.67;41.78;99892.81;4972515;28;19917;-69
2023/06/25 11:27:31;;;;;;;;;;;;;;;33.88;40.28;99895.88;4924306;28;19965;-68
2023/06/25 11:29:57;;;;;;;;;;;;;;;33.91;38.39;99881.41;4949796;29;20369;-68
2023/06/25 11:32:24;;;;;;;;;;;;;;;33.91;37.68;99892.97;4967832;28;20008;-69
2023/06/25 11:34:49;;;;;;;;;;;;;;;34.05;40.78;99886.66;4972563;28;19924;-68
2023/06/25 11:37:15;;;;;;;;;;;;;;;34.00;37.26;99880.78;4972032;28;19914;-70
2023/06/25 11:39:50;;;;;;;;;;;;;;;34.14;40.55;99885.13;4972278;28;20807;-69
2023/06/25 11:42:17;;;;;;;;;;;;;;;34.23;37.36;99881.78;4972432;28;20292;-69
2023/06/25 11:44:43;;;;;;;;;;;;;;;34.33;33.97;99865.91;4972135;28;19918;-68
2023/06/25 11:47:10;;;;;;;;;;;;;;;34.21;35.53;99867.66;4971816;28;19914;-69
2023/06/25 11:49:36;;;;;;;;;;;;;;;34.27;34.45;99859.19;4971599;28;19961;-68
2023/06/25 11:52:02;;;;;;;;;;;;;;;34.17;37.23;99856.31;4971475;28;20396;-69
2023/06/25 11:54:29;;;;;;;;;;;;;;;33.86;37.15;99860.31;4967399;28;19921;-69
2023/06/25 11:56:55;;;;;;;;;;;;;;;33.91;37.65;99858.19;4937881;28;19914;-68
2023/06/25 11:59:20;;;;;;;;;;;;;;;33.97;36.79;99852.38;4969141;28;19921;-69
2023/06/25 12:01:46;;;;;;;;;;;;;;;34.03;38.77;99854.63;4971568;28;20002;-68
2023/06/25 12:04:11;;;;;;;;;;;;;;;33.97;39.60;99854.19;4954625;28;19914;-68
2023/06/25 12:06:36;;;;;;;;;;;;;;;34.14;38.47;99856.50;4971519;28;19914;-69
2023/06/25 12:09:03;;;;;;;;;;;;;;;34.21;37.31;99859.63;4971745;28;20324;-69
2023/06/25 12:11:29;;;;;;;;;;;;;;;34.49;39.56;99855.84;4972060;28;19918;-68
2023/06/25 12:13:54;;;;;;;;;;;;;;;34.40;36.73;99845.78;4971880;28;19923;-68
2023/06/25 12:16:20;;;;;;;;;;;;;;;34.70;36.09;99849.84;4971757;28;20387;-69
2023/06/25 12:18:45;;;;;;;;;;;;;;;34.90;35.10;99851.06;4971757;28;19980;-68
2023/06/25 12:21:11;;;;;;;;;;;;;;;34.99;35.34;99847.69;4936967;28;19969;-69
2023/06/25 12:23:36;;;;;;;;;;;;;;;34.76;35.15;99851.22;4971625;28;19926;-69
2023/06/25 12:26:01;;;;;;;;;;;;;;;34.78;33.40;99843.91;4971501;28;19921;-69
2023/06/25 12:28:27;;;;;;;;;;;;;;;34.74;33.20;99847.78;4971232;28;19992;-69
2023/06/25 12:30:52;;;;;;;;;;;;;;;34.77;33.08;99839.50;4971741;28;19925;-69